sensor_id;sensor_type;location;lat;lon;timestamp;temperature;humidity
19974;DHT22;10148;47.694;9.442;2023-01-20T00:02:07;-1.90;99.90
19974;DHT22;10148;47.694;9.442;2023-01-20T00:04:33;-1.90;99.90
19974;DHT22;10148;47.694;9.442;2023-01-20T00:06:58;-1.90;99.90
19974;DHT22;10148;47.694;9.442;2023-01-20T00:09:24;-1.90;99.90
19974;DHT22;10148;47.694;9.442;2023-01-20T00:11:49;-1.90;99.90
19974;DHT22;10148;47.694;9.442;2023-01-20T00:14:15;-2.00;99.90
19974;DHT22;10148;47.694;9.442;2023-01-20T00:16:40;-1.90;99.90
19974;DHT22;10148;47.694;9.442;2023-01-20T00:19:06;-1.90;99.90
19974;DHT22;10148;47.694;9.442;2023-01-20T00:21:32;-1.90;99.90
19974;DHT22;10148;47.694;9.442;2023-01-20T00:23:59;-1.90;99.90
19974;DHT22;10148;47.694;9.442;2023-01-20T00:26:24;-1.90;99.90
19974;DHT22;10148;47.694;9.442;2023-01-20T00:28:52;-1.90;99.90
19974;DHT22;10148;47.694;9.442;2023-01-20T00:31:29;-1.90;99.90
19974;DHT22;10148;47.694;9.442;2023-01-20T00:33:57;-2.00;99.90
19974;DHT22;10148;47.694;9.442;2023-01-20T00:36:24;-2.00;99.90
19974;DHT22;10148;47.694;9.442;2023-01-20T00:38:50;-1.90;99.90
19974;DHT22;10148;47.694;9.442;2023-01-20T00:41:16;-2.00;99.90
19974;DHT22;10148;47.694;9.442;2023-01-20T00:43:42;-2.00;99.90
19974;DHT22;10148;47.694;9.442;2023-01-20T00:46:08;-2.00;99.90
19974;DHT22;10148;47.694;9.442;2023-01-20T00:48:34;-2.00;99.90
19974;DHT22;10148;47.694;9.442;2023-01-20T00:51:01;-2.00;99.90
19974;DHT22;10148;47.694;9.442;2023-01-20T00:53:27;-2.00;99.90
19974;DHT22;10148;47.694;9.442;2023-01-20T00:55:53;-2.00;99.90
19974;DHT22;10148;47.694;9.442;2023-01-20T00:58:18;-2.00;99.90
19974;DHT22;10148;47.694;9.442;2023-01-20T01:00:48;-2.00;99.90
19974;DHT22;10148;47.694;9.442;2023-01-20T01:03:13;-2.00;99.90
19974;DHT22;10148;47.694;9.442;2023-01-20T01:05:39;-2.00;99.90
19974;DHT22;10148;47.694;9.442;2023-01-20T01:08:05;-2.00;99.90
19974;DHT22;10148;47.694;9.442;2023-01-20T01:10:30;-1.90;99.90
19974;DHT22;10148;47.694;9.442;2023-01-20T01:13:01;-1.90;99.90
19974;DHT22;10148;47.694;9.442;2023-01-20T01:15:27;-1.90;99.90
19974;DHT22;10148;47.694;9.442;2023-01-20T01:17:54;-1.90;99.90
19974;DHT22;10148;47.694;9.442;2023-01-20T01:20:20;-1.90;99.90
19974;DHT22;10148;47.694;9.442;2023-01-20T01:22:46;-1.80;99.90
19974;DHT22;10148;47.694;9.442;2023-01-20T01:25:12;-1.80;99.90
19974;DHT22;10148;47.694;9.442;2023-01-20T01:27:37;-1.80;99.90
19974;DHT22;10148;47.694;9.442;2023-01-20T01:30:03;-1.80;99.90
19974;DHT22;10148;47.694;9.442;2023-01-20T01:32:29;-1.80;99.90
19974;DHT22;10148;47.694;9.442;2023-01-20T01:34:55;-1.80;99.90
19974;DHT22;10148;47.694;9.442;2023-01-20T01:37:20;-1.80;99.90
19974;DHT22;10148;47.694;9.442;2023-01-20T01:39:46;-1.80;99.90
19974;DHT22;10148;47.694;9.442;2023-01-20T01:42:13;-1.80;99.90
19974;DHT22;10148;47.694;9.442;2023-01-20T01:47:40;-1.80;99.90
19974;DHT22;10148;47.694;9.442;2023-01-20T01:50:08;-1.80;99.90
19974;DHT22;10148;47.694;9.442;2023-01-20T01:52:35;-1.80;99.90
19974;DHT22;10148;47.694;9.442;2023-01-20T01:55:03;-1.80;99.90
19974;DHT22;10148;47.694;9.442;2023-01-20T01:57:30;-1.80;99.90
19974;DHT22;10148;47.694;9.442;2023-01-20T01:59:56;-1.80;99.90
19974;DHT22;10148;47.694;9.442;2023-01-20T02:02:21;-1.80;99.90
19974;DHT22;10148;47.694;9.442;2023-01-20T02:04:47;-1.80;99.90
19974;DHT22;10148;47.694;9.442;2023-01-20T02:07:16;-1.90;99.90
19974;DHT22;10148;47.694;9.442;2023-01-20T02:09:43;-1.90;99.90
19974;DHT22;10148;47.694;9.442;2023-01-20T02:12:17;-1.90;99.90
19974;DHT22;10148;47.694;9.442;2023-01-20T02:14:47;-1.90;99.90
19974;DHT22;10148;47.694;9.442;2023-01-20T02:20:45;-1.90;99.90
19974;DHT22;10148;47.694;9.442;2023-01-20T02:23:08;-1.90;99.90
19974;DHT22;10148;47.694;9.442;2023-01-20T02:29:25;-1.90;99.90
19974;DHT22;10148;47.694;9.442;2023-01-20T02:36:55;-1.90;99.90
19974;DHT22;10148;47.694;9.442;2023-01-20T02:42:19;-1.90;99.90
19974;DHT22;10148;47.694;9.442;2023-01-20T02:47:31;-1.90;99.90
19974;DHT22;10148;47.694;9.442;2023-01-20T02:50:06;-1.90;99.90
19974;DHT22;10148;47.694;9.442;2023-01-20T02:52:37;-1.90;99.90
19974;DHT22;10148;47.694;9.442;2023-01-20T02:55:07;-1.90;99.90
19974;DHT22;10148;47.694;9.442;2023-01-20T02:57:41;-1.90;99.90
19974;DHT22;10148;47.694;9.442;2023-01-20T03:00:22;-1.90;99.90
19974;DHT22;10148;47.694;9.442;2023-01-20T03:02:52;-1.90;99.90
19974;DHT22;10148;47.694;9.442;2023-01-20T03:05:40;-1.90;99.90
19974;DHT22;10148;47.694;9.442;2023-01-20T03:08:09;-1.90;99.90
19974;DHT22;10148;47.694;9.442;2023-01-20T03:10:37;-1.90;99.90
19974;DHT22;10148;47.694;9.442;2023-01-20T03:13:10;-1.90;99.90
19974;DHT22;10148;47.694;9.442;2023-01-20T03:15:51;-1.90;99.90
19974;DHT22;10148;47.694;9.442;2023-01-20T03:18:19;-1.90;99.90
19974;DHT22;10148;47.694;9.442;2023-01-20T03:20:45;-1.90;99.90
19974;DHT22;10148;47.694;9.442;2023-01-20T03:23:11;-1.90;99.90
19974;DHT22;10148;47.694;9.442;2023-01-20T03:25:37;-1.90;99.90
19974;DHT22;10148;47.694;9.442;2023-01-20T03:28:03;-1.90;99.90
19974;DHT22;10148;47.694;9.442;2023-01-20T03:30:29;-1.90;99.90
19974;DHT22;10148;47.694;9.442;2023-01-20T03:32:55;-1.90;99.90
19974;DHT22;10148;47.694;9.442;2023-01-20T03:35:21;-1.90;99.90
19974;DHT22;10148;47.694;9.442;2023-01-20T03:37:47;-1.90;99.90
19974;DHT22;10148;47.694;9.442;2023-01-20T03:40:13;-1.80;99.90
19974;DHT22;10148;47.694;9.442;2023-01-20T03:42:58;-1.80;99.90
19974;DHT22;10148;47.694;9.442;2023-01-20T03:45:35;-1.80;99.90
19974;DHT22;10148;47.694;9.442;2023-01-20T03:50:56;-1.90;99.90
19974;DHT22;10148;47.694;9.442;2023-01-20T03:53:38;-1.80;99.90
19974;DHT22;10148;47.694;9.442;2023-01-20T03:56:40;-1.90;99.90
19974;DHT22;10148;47.694;9.442;2023-01-20T03:59:09;-1.90;99.90
19974;DHT22;10148;47.694;9.442;2023-01-20T04:01:38;-1.90;99.90
19974;DHT22;10148;47.694;9.442;2023-01-20T04:04:08;-1.80;99.90
19974;DHT22;10148;47.694;9.442;2023-01-20T04:06:36;-1.90;99.90
19974;DHT22;10148;47.694;9.442;2023-01-20T04:09:19;-1.80;99.90
19974;DHT22;10148;47.694;9.442;2023-01-20T04:11:47;-1.80;99.90
19974;DHT22;10148;47.694;9.442;2023-01-20T04:14:12;-1.80;99.90
19974;DHT22;10148;47.694;9.442;2023-01-20T04:16:38;-1.90;99.90
19974;DHT22;10148;47.694;9.442;2023-01-20T04:19:04;-1.90;99.90
19974;DHT22;10148;47.694;9.442;2023-01-20T04:21:34;-1.90;99.90
19974;DHT22;10148;47.694;9.442;2023-01-20T04:24:04;-1.90;99.90
19974;DHT22;10148;47.694;9.442;2023-01-20T04:26:30;-1.90;99.90
19974;DHT22;10148;47.694;9.442;2023-01-20T04:28:55;-1.90;99.90
19974;DHT22;10148;47.694;9.442;2023-01-20T04:31:21;-1.90;99.90
19974;DHT22;10148;47.694;9.442;2023-01-20T04:33:46;-1.90;99.90
19974;DHT22;10148;47.694;9.442;2023-01-20T04:36:12;-1.90;99.90
19974;DHT22;10148;47.694;9.442;2023-01-20T04:38:37;-1.90;99.90
19974;DHT22;10148;47.694;9.442;2023-01-20T04:41:03;-1.90;99.90
19974;DHT22;10148;47.694;9.442;2023-01-20T04:43:29;-1.90;99.90
19974;DHT22;10148;47.694;9.442;2023-01-20T04:45:54;-2.00;99.90
19974;DHT22;10148;47.694;9.442;2023-01-20T04:48:20;-2.00;99.90
19974;DHT22;10148;47.694;9.442;2023-01-20T04:50:45;-1.90;99.90
19974;DHT22;10148;47.694;9.442;2023-01-20T04:53:12;-1.90;99.90
19974;DHT22;10148;47.694;9.442;2023-01-20T04:55:41;-1.90;99.90
19974;DHT22;10148;47.694;9.442;2023-01-20T04:58:09;-1.90;99.90
19974;DHT22;10148;47.694;9.442;2023-01-20T05:00:34;-1.90;99.90
19974;DHT22;10148;47.694;9.442;2023-01-20T05:03:00;-1.90;99.90
19974;DHT22;10148;47.694;9.442;2023-01-20T05:05:27;-1.90;99.90
19974;DHT22;10148;47.694;9.442;2023-01-20T05:07:53;-1.90;99.90
19974;DHT22;10148;47.694;9.442;2023-01-20T05:10:19;-1.90;99.90
19974;DHT22;10148;47.694;9.442;2023-01-20T05:12:45;-1.90;99.90
19974;DHT22;10148;47.694;9.442;2023-01-20T05:15:11;-1.90;99.90
19974;DHT22;10148;47.694;9.442;2023-01-20T05:17:37;-1.90;99.90
19974;DHT22;10148;47.694;9.442;2023-01-20T05:20:02;-1.90;99.90
19974;DHT22;10148;47.694;9.442;2023-01-20T05:22:28;-1.90;99.90
19974;DHT22;10148;47.694;9.442;2023-01-20T05:24:57;-1.90;99.90
19974;DHT22;10148;47.694;9.442;2023-01-20T05:27:23;-2.00;99.90
19974;DHT22;10148;47.694;9.442;2023-01-20T05:29:49;-2.00;99.90
19974;DHT22;10148;47.694;9.442;2023-01-20T05:32:14;-2.00;99.90
19974;DHT22;10148;47.694;9.442;2023-01-20T05:34:40;-1.90;99.90
19974;DHT22;10148;47.694;9.442;2023-01-20T05:37:05;-2.00;99.90
19974;DHT22;10148;47.694;9.442;2023-01-20T05:39:31;-2.00;99.90
19974;DHT22;10148;47.694;9.442;2023-01-20T05:41:56;-2.00;99.90
19974;DHT22;10148;47.694;9.442;2023-01-20T05:44:22;-2.00;99.90
19974;DHT22;10148;47.694;9.442;2023-01-20T05:46:47;-2.00;99.90
19974;DHT22;10148;47.694;9.442;2023-01-20T05:49:13;-2.00;99.90
19974;DHT22;10148;47.694;9.442;2023-01-20T05:51:38;-2.00;99.90
19974;DHT22;10148;47.694;9.442;2023-01-20T05:54:04;-2.00;99.90
19974;DHT22;10148;47.694;9.442;2023-01-20T05:56:30;-1.90;99.90
19974;DHT22;10148;47.694;9.442;2023-01-20T05:58:55;-1.90;99.90
19974;DHT22;10148;47.694;9.442;2023-01-20T06:01:21;-1.90;99.90
19974;DHT22;10148;47.694;9.442;2023-01-20T06:03:59;-1.90;99.90
19974;DHT22;10148;47.694;9.442;2023-01-20T06:06:24;-1.90;99.90
19974;DHT22;10148;47.694;9.442;2023-01-20T06:08:51;-1.90;99.90
19974;DHT22;10148;47.694;9.442;2023-01-20T06:11:16;-1.90;99.90
19974;DHT22;10148;47.694;9.442;2023-01-20T06:13:42;-2.00;99.90
19974;DHT22;10148;47.694;9.442;2023-01-20T06:16:08;-2.00;99.90
19974;DHT22;10148;47.694;9.442;2023-01-20T06:18:34;-2.00;99.90
19974;DHT22;10148;47.694;9.442;2023-01-20T06:20:59;-2.00;99.90
19974;DHT22;10148;47.694;9.442;2023-01-20T06:23:26;-2.00;99.90
19974;DHT22;10148;47.694;9.442;2023-01-20T06:26:05;-2.00;99.90
19974;DHT22;10148;47.694;9.442;2023-01-20T06:28:32;-2.00;99.90
19974;DHT22;10148;47.694;9.442;2023-01-20T06:31:02;-2.00;99.90
19974;DHT22;10148;47.694;9.442;2023-01-20T06:33:29;-2.10;99.90
19974;DHT22;10148;47.694;9.442;2023-01-20T06:35:55;-2.10;99.90
19974;DHT22;10148;47.694;9.442;2023-01-20T06:38:26;-2.10;99.90
19974;DHT22;10148;47.694;9.442;2023-01-20T06:41:00;-2.10;99.90
19974;DHT22;10148;47.694;9.442;2023-01-20T06:43:28;-2.00;99.90
19974;DHT22;10148;47.694;9.442;2023-01-20T06:45:58;-2.00;99.90
19974;DHT22;10148;47.694;9.442;2023-01-20T06:48:24;-2.00;99.90
19974;DHT22;10148;47.694;9.442;2023-01-20T06:50:49;-2.00;99.90
19974;DHT22;10148;47.694;9.442;2023-01-20T06:53:15;-2.00;99.90
19974;DHT22;10148;47.694;9.442;2023-01-20T06:55:40;-2.00;99.90
19974;DHT22;10148;47.694;9.442;2023-01-20T06:58:06;-2.00;99.90
19974;DHT22;10148;47.694;9.442;2023-01-20T07:00:31;-1.90;99.90
19974;DHT22;10148;47.694;9.442;2023-01-20T07:02:57;-2.00;99.90
19974;DHT22;10148;47.694;9.442;2023-01-20T07:05:22;-2.00;99.90
19974;DHT22;10148;47.694;9.442;2023-01-20T07:07:48;-1.90;99.90
19974;DHT22;10148;47.694;9.442;2023-01-20T07:10:14;-1.90;99.90
19974;DHT22;10148;47.694;9.442;2023-01-20T07:12:40;-1.90;99.90
19974;DHT22;10148;47.694;9.442;2023-01-20T07:15:06;-2.00;99.90
19974;DHT22;10148;47.694;9.442;2023-01-20T07:17:31;-1.90;99.90
19974;DHT22;10148;47.694;9.442;2023-01-20T07:19:57;-1.90;99.90
19974;DHT22;10148;47.694;9.442;2023-01-20T07:22:22;-1.90;99.90
19974;DHT22;10148;47.694;9.442;2023-01-20T07:24:48;-1.90;99.90
19974;DHT22;10148;47.694;9.442;2023-01-20T07:27:13;-1.90;99.90
19974;DHT22;10148;47.694;9.442;2023-01-20T07:29:40;-1.90;99.90
19974;DHT22;10148;47.694;9.442;2023-01-20T07:32:06;-1.80;99.90
19974;DHT22;10148;47.694;9.442;2023-01-20T07:34:31;-1.80;99.90
19974;DHT22;10148;47.694;9.442;2023-01-20T07:36:57;-1.70;99.90
19974;DHT22;10148;47.694;9.442;2023-01-20T07:39:25;-1.50;99.90
19974;DHT22;10148;47.694;9.442;2023-01-20T07:41:51;-1.50;99.90
19974;DHT22;10148;47.694;9.442;2023-01-20T07:44:16;-1.50;99.90
19974;DHT22;10148;47.694;9.442;2023-01-20T07:46:42;-1.50;99.90
19974;DHT22;10148;47.694;9.442;2023-01-20T07:49:07;-1.60;99.90
19974;DHT22;10148;47.694;9.442;2023-01-20T07:51:33;-1.60;99.90
19974;DHT22;10148;47.694;9.442;2023-01-20T07:53:58;-1.70;99.90
19974;DHT22;10148;47.694;9.442;2023-01-20T07:56:26;-1.70;99.90
19974;DHT22;10148;47.694;9.442;2023-01-20T07:58:53;-1.60;99.90
19974;DHT22;10148;47.694;9.442;2023-01-20T08:01:24;-1.60;99.90
19974;DHT22;10148;47.694;9.442;2023-01-20T08:03:50;-1.50;99.90
19974;DHT22;10148;47.694;9.442;2023-01-20T08:06:17;-1.50;99.90
19974;DHT22;10148;47.694;9.442;2023-01-20T08:08:44;-1.50;99.90
19974;DHT22;10148;47.694;9.442;2023-01-20T08:11:11;-1.50;99.90
19974;DHT22;10148;47.694;9.442;2023-01-20T08:13:38;-1.50;99.90
19974;DHT22;10148;47.694;9.442;2023-01-20T08:16:05;-1.40;99.90
19974;DHT22;10148;47.694;9.442;2023-01-20T08:18:32;-1.40;99.90
19974;DHT22;10148;47.694;9.442;2023-01-20T08:20:58;-1.50;99.90
19974;DHT22;10148;47.694;9.442;2023-01-20T08:23:24;-1.40;99.90
19974;DHT22;10148;47.694;9.442;2023-01-20T08:25:56;-1.40;99.90
19974;DHT22;10148;47.694;9.442;2023-01-20T08:28:24;-1.40;99.90
19974;DHT22;10148;47.694;9.442;2023-01-20T08:30:50;-1.40;99.90
19974;DHT22;10148;47.694;9.442;2023-01-20T08:33:15;-1.30;99.90
19974;DHT22;10148;47.694;9.442;2023-01-20T08:35:41;-1.30;99.90
19974;DHT22;10148;47.694;9.442;2023-01-20T08:38:06;-1.30;99.90
19974;DHT22;10148;47.694;9.442;2023-01-20T08:40:33;-1.20;99.90
19974;DHT22;10148;47.694;9.442;2023-01-20T08:42:59;-1.30;99.90
19974;DHT22;10148;47.694;9.442;2023-01-20T08:45:24;-1.20;99.90
19974;DHT22;10148;47.694;9.442;2023-01-20T08:47:50;-1.30;99.90
19974;DHT22;10148;47.694;9.442;2023-01-20T08:50:16;-1.30;99.90
19974;DHT22;10148;47.694;9.442;2023-01-20T08:52:42;-1.20;99.90
19974;DHT22;10148;47.694;9.442;2023-01-20T08:55:08;-1.20;99.90
19974;DHT22;10148;47.694;9.442;2023-01-20T08:57:34;-1.20;99.90
19974;DHT22;10148;47.694;9.442;2023-01-20T08:59:59;-1.10;99.90
19974;DHT22;10148;47.694;9.442;2023-01-20T09:02:25;-1.10;99.90
19974;DHT22;10148;47.694;9.442;2023-01-20T09:04:51;-1.10;99.90
19974;DHT22;10148;47.694;9.442;2023-01-20T09:07:18;-1.00;99.90
19974;DHT22;10148;47.694;9.442;2023-01-20T09:09:44;-1.00;99.90
19974;DHT22;10148;47.694;9.442;2023-01-20T09:12:10;-1.00;99.90
19974;DHT22;10148;47.694;9.442;2023-01-20T09:14:35;-1.00;99.90
19974;DHT22;10148;47.694;9.442;2023-01-20T09:17:01;-0.90;99.90
19974;DHT22;10148;47.694;9.442;2023-01-20T09:19:28;-0.90;99.90
19974;DHT22;10148;47.694;9.442;2023-01-20T09:21:54;-0.90;99.90
19974;DHT22;10148;47.694;9.442;2023-01-20T09:24:20;-0.90;99.90
19974;DHT22;10148;47.694;9.442;2023-01-20T09:26:47;-0.90;99.90
19974;DHT22;10148;47.694;9.442;2023-01-20T09:29:14;-0.80;99.90
19974;DHT22;10148;47.694;9.442;2023-01-20T09:31:51;-0.90;99.90
19974;DHT22;10148;47.694;9.442;2023-01-20T09:34:18;-0.90;99.90
19974;DHT22;10148;47.694;9.442;2023-01-20T09:36:53;-0.90;99.90
19974;DHT22;10148;47.694;9.442;2023-01-20T09:39:19;-0.90;99.90
19974;DHT22;10148;47.694;9.442;2023-01-20T09:45:31;-0.90;99.90
19974;DHT22;10148;47.694;9.442;2023-01-20T09:51:13;-0.90;99.90
19974;DHT22;10148;47.694;9.442;2023-01-20T09:54:07;-0.90;99.90
19974;DHT22;10148;47.694;9.442;2023-01-20T09:56:40;-0.80;99.90
19974;DHT22;10148;47.694;9.442;2023-01-20T09:59:17;-0.60;99.90
19974;DHT22;10148;47.694;9.442;2023-01-20T10:01:53;-0.50;99.90
19974;DHT22;10148;47.694;9.442;2023-01-20T10:04:38;-0.30;99.90
19974;DHT22;10148;47.694;9.442;2023-01-20T10:12:32;-0.10;99.90
19974;DHT22;10148;47.694;9.442;2023-01-20T10:15:28;-0.10;99.90
19974;DHT22;10148;47.694;9.442;2023-01-20T10:18:02;-0.10;99.90
19974;DHT22;10148;47.694;9.442;2023-01-20T10:20:52;-0.10;99.90
19974;DHT22;10148;47.694;9.442;2023-01-20T10:23:32;-0.10;99.90
19974;DHT22;10148;47.694;9.442;2023-01-20T10:26:07;-0.10;99.90
19974;DHT22;10148;47.694;9.442;2023-01-20T10:28:42;0.00;99.90
19974;DHT22;10148;47.694;9.442;2023-01-20T10:31:13;0.10;99.90
19974;DHT22;10148;47.694;9.442;2023-01-20T10:33:44;0.20;99.90
19974;DHT22;10148;47.694;9.442;2023-01-20T10:36:30;0.20;99.90
19974;DHT22;10148;47.694;9.442;2023-01-20T10:39:09;0.20;99.90
19974;DHT22;10148;47.694;9.442;2023-01-20T10:41:44;0.20;99.90
19974;DHT22;10148;47.694;9.442;2023-01-20T10:44:12;0.20;99.90
19974;DHT22;10148;47.694;9.442;2023-01-20T10:49:41;0.30;99.90
19974;DHT22;10148;47.694;9.442;2023-01-20T10:58:35;0.50;99.90
19974;DHT22;10148;47.694;9.442;2023-01-20T11:01:04;0.50;99.90
19974;DHT22;10148;47.694;9.442;2023-01-20T11:03:39;0.50;99.90
19974;DHT22;10148;47.694;9.442;2023-01-20T11:06:06;0.50;99.90
19974;DHT22;10148;47.694;9.442;2023-01-20T11:08:32;0.50;99.90
19974;DHT22;10148;47.694;9.442;2023-01-20T11:11:00;0.40;99.90
19974;DHT22;10148;47.694;9.442;2023-01-20T11:13:33;0.50;99.90
19974;DHT22;10148;47.694;9.442;2023-01-20T11:16:02;0.80;99.90
19974;DHT22;10148;47.694;9.442;2023-01-20T11:18:31;0.90;99.90
19974;DHT22;10148;47.694;9.442;2023-01-20T11:21:03;0.80;99.90
19974;DHT22;10148;47.694;9.442;2023-01-20T11:26:01;0.70;99.90
19974;DHT22;10148;47.694;9.442;2023-01-20T11:28:31;0.70;99.90
19974;DHT22;10148;47.694;9.442;2023-01-20T11:31:02;0.70;99.90
19974;DHT22;10148;47.694;9.442;2023-01-20T11:33:28;0.70;99.90
19974;DHT22;10148;47.694;9.442;2023-01-20T11:36:16;0.80;99.90
19974;DHT22;10148;47.694;9.442;2023-01-20T11:38:48;0.60;99.90
19974;DHT22;10148;47.694;9.442;2023-01-20T11:41:31;0.60;99.90
19974;DHT22;10148;47.694;9.442;2023-01-20T11:43:58;0.60;99.90
19974;DHT22;10148;47.694;9.442;2023-01-20T11:46:32;0.60;99.90
19974;DHT22;10148;47.694;9.442;2023-01-20T11:49:17;0.50;99.90
19974;DHT22;10148;47.694;9.442;2023-01-20T11:51:54;0.50;99.90
19974;DHT22;10148;47.694;9.442;2023-01-20T11:54:28;0.50;99.90
19974;DHT22;10148;47.694;9.442;2023-01-20T11:57:03;0.40;99.90
19974;DHT22;10148;47.694;9.442;2023-01-20T11:59:32;0.30;99.90
19974;DHT22;10148;47.694;9.442;2023-01-20T12:07:31;0.40;99.90
19974;DHT22;10148;47.694;9.442;2023-01-20T12:10:11;0.40;99.90
19974;DHT22;10148;47.694;9.442;2023-01-20T12:12:47;0.40;99.90
19974;DHT22;10148;47.694;9.442;2023-01-20T12:18:04;0.40;99.90
19974;DHT22;10148;47.694;9.442;2023-01-20T12:21:18;0.40;99.90
19974;DHT22;10148;47.694;9.442;2023-01-20T12:23:40;0.50;99.90
19974;DHT22;10148;47.694;9.442;2023-01-20T12:26:14;0.50;99.90
19974;DHT22;10148;47.694;9.442;2023-01-20T12:29:00;0.50;99.90
19974;DHT22;10148;47.694;9.442;2023-01-20T12:31:28;0.40;99.90
19974;DHT22;10148;47.694;9.442;2023-01-20T12:34:13;0.40;99.90
19974;DHT22;10148;47.694;9.442;2023-01-20T12:36:42;0.40;99.90
19974;DHT22;10148;47.694;9.442;2023-01-20T12:56:24;-0.10;99.90
19974;DHT22;10148;47.694;9.442;2023-01-20T13:02:03;-0.10;99.90
19974;DHT22;10148;47.694;9.442;2023-01-20T13:07:34;0.00;99.90
19974;DHT22;10148;47.694;9.442;2023-01-20T13:10:12;0.00;99.90
19974;DHT22;10148;47.694;9.442;2023-01-20T13:12:45;0.10;99.90
19974;DHT22;10148;47.694;9.442;2023-01-20T13:15:26;0.00;99.90
19974;DHT22;10148;47.694;9.442;2023-01-20T13:20:24;0.10;99.90
19974;DHT22;10148;47.694;9.442;2023-01-20T13:22:50;0.10;99.90
19974;DHT22;10148;47.694;9.442;2023-01-20T13:25:17;0.10;99.90
19974;DHT22;10148;47.694;9.442;2023-01-20T13:27:44;0.10;99.90
19974;DHT22;10148;47.694;9.442;2023-01-20T13:30:37;0.10;99.90
19974;DHT22;10148;47.694;9.442;2023-01-20T13:33:05;0.10;99.90
19974;DHT22;10148;47.694;9.442;2023-01-20T13:37:59;0.20;99.90
19974;DHT22;10148;47.694;9.442;2023-01-20T13:45:47;0.10;99.90
19974;DHT22;10148;47.694;9.442;2023-01-20T13:50:41;0.20;99.90
19974;DHT22;10148;47.694;9.442;2023-01-20T13:58:15;0.40;99.90
19974;DHT22;10148;47.694;9.442;2023-01-20T14:00:42;0.40;99.90
19974;DHT22;10148;47.694;9.442;2023-01-20T14:03:26;0.40;99.90
19974;DHT22;10148;47.694;9.442;2023-01-20T14:05:58;0.40;99.90
19974;DHT22;10148;47.694;9.442;2023-01-20T14:08:25;0.50;99.90
19974;DHT22;10148;47.694;9.442;2023-01-20T14:11:12;0.50;99.90
19974;DHT22;10148;47.694;9.442;2023-01-20T14:13:37;0.50;99.90
19974;DHT22;10148;47.694;9.442;2023-01-20T14:16:03;0.50;99.90
19974;DHT22;10148;47.694;9.442;2023-01-20T14:18:29;0.50;99.90
19974;DHT22;10148;47.694;9.442;2023-01-20T14:21:17;0.50;99.90
19974;DHT22;10148;47.694;9.442;2023-01-20T14:23:43;0.40;99.90
19974;DHT22;10148;47.694;9.442;2023-01-20T14:26:13;0.50;99.90
19974;DHT22;10148;47.694;9.442;2023-01-20T14:28:46;0.50;99.90
19974;DHT22;10148;47.694;9.442;2023-01-20T14:33:52;0.50;99.90
19974;DHT22;10148;47.694;9.442;2023-01-20T14:36:20;0.40;99.90
19974;DHT22;10148;47.694;9.442;2023-01-20T14:38:59;0.40;99.90
19974;DHT22;10148;47.694;9.442;2023-01-20T14:41:33;0.30;99.90
19974;DHT22;10148;47.694;9.442;2023-01-20T14:43:59;0.30;99.90
19974;DHT22;10148;47.694;9.442;2023-01-20T14:46:27;0.30;99.90
19974;DHT22;10148;47.694;9.442;2023-01-20T14:48:54;0.30;99.90
19974;DHT22;10148;47.694;9.442;2023-01-20T14:51:21;0.20;99.90
19974;DHT22;10148;47.694;9.442;2023-01-20T14:53:47;0.30;99.90
19974;DHT22;10148;47.694;9.442;2023-01-20T14:56:32;0.30;99.90
19974;DHT22;10148;47.694;9.442;2023-01-20T14:58:57;0.30;99.90
19974;DHT22;10148;47.694;9.442;2023-01-20T15:01:24;0.30;99.90
19974;DHT22;10148;47.694;9.442;2023-01-20T15:03:55;0.30;99.90
19974;DHT22;10148;47.694;9.442;2023-01-20T15:06:22;0.30;99.90
19974;DHT22;10148;47.694;9.442;2023-01-20T15:08:49;0.30;99.90
19974;DHT22;10148;47.694;9.442;2023-01-20T15:16:39;0.30;99.90
19974;DHT22;10148;47.694;9.442;2023-01-20T15:19:29;0.30;99.90
19974;DHT22;10148;47.694;9.442;2023-01-20T15:22:09;0.30;99.90
19974;DHT22;10148;47.694;9.442;2023-01-20T15:24:39;0.20;99.90
19974;DHT22;10148;47.694;9.442;2023-01-20T15:32:36;0.10;99.90
19974;DHT22;10148;47.694;9.442;2023-01-20T15:35:01;0.00;99.90
19974;DHT22;10148;47.694;9.442;2023-01-20T15:37:27;-0.10;99.90
19974;DHT22;10148;47.694;9.442;2023-01-20T15:39:52;-0.10;99.90
19974;DHT22;10148;47.694;9.442;2023-01-20T15:42:18;-0.10;99.90
19974;DHT22;10148;47.694;9.442;2023-01-20T15:44:44;-0.10;99.90
19974;DHT22;10148;47.694;9.442;2023-01-20T15:47:20;-0.10;99.90
19974;DHT22;10148;47.694;9.442;2023-01-20T15:49:46;0.00;99.90
19974;DHT22;10148;47.694;9.442;2023-01-20T15:52:12;-0.10;99.90
19974;DHT22;10148;47.694;9.442;2023-01-20T15:54:38;-0.20;99.90
19974;DHT22;10148;47.694;9.442;2023-01-20T15:57:10;-0.30;99.90
19974;DHT22;10148;47.694;9.442;2023-01-20T15:59:36;-0.30;99.90
19974;DHT22;10148;47.694;9.442;2023-01-20T16:02:02;-0.40;99.90
19974;DHT22;10148;47.694;9.442;2023-01-20T16:04:28;-0.40;99.90
19974;DHT22;10148;47.694;9.442;2023-01-20T16:06:55;-0.50;99.90
19974;DHT22;10148;47.694;9.442;2023-01-20T16:09:27;-0.50;99.90
19974;DHT22;10148;47.694;9.442;2023-01-20T16:11:54;-0.60;99.90
19974;DHT22;10148;47.694;9.442;2023-01-20T16:14:20;-0.60;99.90
19974;DHT22;10148;47.694;9.442;2023-01-20T16:16:45;-0.70;99.90
19974;DHT22;10148;47.694;9.442;2023-01-20T16:19:12;-0.70;99.90
19974;DHT22;10148;47.694;9.442;2023-01-20T16:21:37;-0.70;99.90
19974;DHT22;10148;47.694;9.442;2023-01-20T16:24:03;-0.70;99.90
19974;DHT22;10148;47.694;9.442;2023-01-20T16:26:31;-0.70;99.90
19974;DHT22;10148;47.694;9.442;2023-01-20T16:28:57;-0.60;99.90
19974;DHT22;10148;47.694;9.442;2023-01-20T16:31:24;-0.70;99.90
19974;DHT22;10148;47.694;9.442;2023-01-20T16:33:52;-0.80;99.90
19974;DHT22;10148;47.694;9.442;2023-01-20T16:36:19;-0.80;99.90
19974;DHT22;10148;47.694;9.442;2023-01-20T16:38:47;-0.80;99.90
19974;DHT22;10148;47.694;9.442;2023-01-20T16:41:25;-0.80;99.90
19974;DHT22;10148;47.694;9.442;2023-01-20T16:43:52;-0.80;99.90
19974;DHT22;10148;47.694;9.442;2023-01-20T16:46:23;-0.80;99.90
19974;DHT22;10148;47.694;9.442;2023-01-20T16:48:49;-0.90;99.90
19974;DHT22;10148;47.694;9.442;2023-01-20T16:51:18;-0.90;99.90
19974;DHT22;10148;47.694;9.442;2023-01-20T16:53:44;-0.90;99.90
19974;DHT22;10148;47.694;9.442;2023-01-20T16:56:12;-0.80;99.90
19974;DHT22;10148;47.694;9.442;2023-01-20T16:58:38;-0.80;99.90
19974;DHT22;10148;47.694;9.442;2023-01-20T17:01:04;-0.80;99.90
19974;DHT22;10148;47.694;9.442;2023-01-20T17:03:37;-0.80;99.90
19974;DHT22;10148;47.694;9.442;2023-01-20T17:06:17;-0.80;99.90
19974;DHT22;10148;47.694;9.442;2023-01-20T17:08:47;-0.80;99.90
19974;DHT22;10148;47.694;9.442;2023-01-20T17:11:25;-0.80;99.90
19974;DHT22;10148;47.694;9.442;2023-01-20T17:13:51;-0.80;99.90
19974;DHT22;10148;47.694;9.442;2023-01-20T17:16:18;-0.80;99.90
19974;DHT22;10148;47.694;9.442;2023-01-20T17:18:54;-0.80;99.90
19974;DHT22;10148;47.694;9.442;2023-01-20T17:21:21;-0.70;99.90
19974;DHT22;10148;47.694;9.442;2023-01-20T17:24:01;-0.60;99.90
19974;DHT22;10148;47.694;9.442;2023-01-20T17:26:27;-0.70;99.90
19974;DHT22;10148;47.694;9.442;2023-01-20T17:28:54;-0.70;99.90
19974;DHT22;10148;47.694;9.442;2023-01-20T17:31:21;-0.80;99.90
19974;DHT22;10148;47.694;9.442;2023-01-20T17:33:47;-0.70;99.90
19974;DHT22;10148;47.694;9.442;2023-01-20T17:36:13;-0.80;99.90
19974;DHT22;10148;47.694;9.442;2023-01-20T17:38:38;-0.70;99.90